createdAt,value
2022-08-11T00:00:00.357Z,2.2
2022-08-11T00:05:00.339Z,1.4
2022-08-11T00:10:00.384Z,2.2
2022-08-11T00:15:00.389Z,2.5
2022-08-11T00:20:16.148Z,2.2
2022-08-11T00:25:03.116Z,1.8
2022-08-11T00:30:00.354Z,2.2
2022-08-11T00:35:50.395Z,1.8
2022-08-11T00:40:00.635Z,2.2
2022-08-11T00:45:00.370Z,1.4
2022-08-11T00:50:00.336Z,2.9
2022-08-11T00:55:00.303Z,4.0
2022-08-11T01:00:04.086Z,2.5
2022-08-11T01:05:00.280Z,3.6
2022-08-11T01:10:07.679Z,2.2
2022-08-11T01:15:00.316Z,4.0
2022-08-11T01:20:38.700Z,4.7
2022-08-11T01:25:00.296Z,3.6
2022-08-11T01:30:00.419Z,3.6
2022-08-11T01:35:00.306Z,3.6
2022-08-11T01:40:00.322Z,4.0
2022-08-11T01:45:00.333Z,3.2
2022-08-11T01:50:10.932Z,3.2
2022-08-11T01:55:00.302Z,3.6
2022-08-11T02:00:00.353Z,2.2
2022-08-11T02:05:00.287Z,2.2
2022-08-11T02:10:01.944Z,0.0
2022-08-11T02:15:05.934Z,2.5
2022-08-11T02:20:00.334Z,2.9
2022-08-11T02:25:00.373Z,2.5
2022-08-11T02:30:00.346Z,2.5
2022-08-11T02:35:00.944Z,0.0
2022-08-11T02:40:00.321Z,2.9
2022-08-11T02:45:00.347Z,2.9
2022-08-11T02:50:08.108Z,1.4
2022-08-11T02:55:00.287Z,1.4
2022-08-11T03:00:00.408Z,2.2
2022-08-11T03:05:00.335Z,3.6
2022-08-11T03:10:00.357Z,2.5
2022-08-11T03:15:00.312Z,2.9
2022-08-11T03:20:00.405Z,3.2
2022-08-11T03:25:00.308Z,3.6
2022-08-11T03:30:00.334Z,3.2
2022-08-11T03:35:00.305Z,3.6
2022-08-11T03:40:00.623Z,3.6
2022-08-11T03:45:00.482Z,4.0
2022-08-11T03:50:00.286Z,2.9
2022-08-11T03:55:00.290Z,2.5
2022-08-11T04:00:00.330Z,3.6
2022-08-11T04:05:00.362Z,3.2
2022-08-11T04:10:00.329Z,4.0
2022-08-11T04:15:00.305Z,2.5
2022-08-11T04:20:00.329Z,1.8
2022-08-11T04:25:00.292Z,3.2
2022-08-11T04:30:11.941Z,2.5
2022-08-11T04:35:00.330Z,3.2
2022-08-11T04:40:00.418Z,2.2
2022-08-11T04:45:00.311Z,2.5
2022-08-11T04:50:00.336Z,1.4
2022-08-11T04:55:00.398Z,2.2
2022-08-11T05:00:00.405Z,3.2
2022-08-11T05:05:00.319Z,2.9
2022-08-11T05:10:00.404Z,4.7
2022-08-11T05:15:00.324Z,5.0
2022-08-11T05:20:00.502Z,3.2
2022-08-11T05:25:01.445Z,3.2
2022-08-11T05:30:00.455Z,4.0
2022-08-11T05:35:00.297Z,3.2
2022-08-11T05:40:00.568Z,4.7
2022-08-11T05:45:00.917Z,6.1
2022-08-11T05:50:01.123Z,6.1
2022-08-11T05:55:07.474Z,6.1
2022-08-11T06:00:00.349Z,7.6
2022-08-11T06:05:00.326Z,4.0
2022-08-11T06:10:00.314Z,5.4
2022-08-11T06:15:00.291Z,4.3
2022-08-11T06:20:08.023Z,5.0
2022-08-11T06:25:00.417Z,2.2
2022-08-11T06:30:00.447Z,4.0
2022-08-11T06:35:00.361Z,5.0
2022-08-11T06:40:00.658Z,4.7
2022-08-11T06:45:00.319Z,3.6
2022-08-11T06:50:00.368Z,2.2
2022-08-11T06:55:00.321Z,3.6
2022-08-11T07:00:00.869Z,2.5
2022-08-11T07:05:00.320Z,3.6
2022-08-11T07:10:00.376Z,4.0
2022-08-11T07:15:01.339Z,5.4
2022-08-11T07:20:00.364Z,2.2
2022-08-11T07:25:03.923Z,3.2
2022-08-11T07:30:00.470Z,4.0
2022-08-11T07:35:00.296Z,2.2
2022-08-11T07:40:00.650Z,6.1
2022-08-11T07:45:00.360Z,2.5
2022-08-11T07:50:01.075Z,2.5
2022-08-11T07:55:02.371Z,7.9
2022-08-11T08:00:05.403Z,1.4
2022-08-11T08:05:00.336Z,4.0
2022-08-11T08:10:03.882Z,9.7
2022-08-11T08:15:01.484Z,5.4
2022-08-11T08:20:00.403Z,4.0
2022-08-11T08:25:00.313Z,4.0
2022-08-11T08:30:00.354Z,5.8
2022-08-11T08:35:00.326Z,2.9
2022-08-11T08:40:00.329Z,5.0
2022-08-11T08:45:00.327Z,6.1
2022-08-11T08:50:01.389Z,2.9
2022-08-11T08:55:00.298Z,4.3
2022-08-11T09:00:00.386Z,7.6
2022-08-11T09:05:00.388Z,4.0
2022-08-11T09:10:00.827Z,6.1
2022-08-11T09:15:00.376Z,4.7
2022-08-11T09:20:03.642Z,8.3
2022-08-11T09:25:00.336Z,3.6
2022-08-11T09:30:00.421Z,3.2
2022-08-11T09:35:00.301Z,9.7
2022-08-11T09:40:00.343Z,9.7
2022-08-11T09:45:02.175Z,6.1
2022-08-11T09:50:02.048Z,11.2
2022-08-11T09:55:00.304Z,4.7
2022-08-11T10:00:14.250Z,12.6
2022-08-11T10:05:00.328Z,10.8
2022-08-11T10:10:00.352Z,7.9
2022-08-11T10:15:00.305Z,4.3
2022-08-11T10:20:06.306Z,3.2
2022-08-11T10:25:00.332Z,2.9
2022-08-11T10:30:00.423Z,5.4
2022-08-11T10:35:00.522Z,3.6
2022-08-11T10:40:00.349Z,5.0
2022-08-11T10:45:00.362Z,9.4
2022-08-11T10:50:05.630Z,5.4
2022-08-11T10:55:00.313Z,8.6
2022-08-11T11:00:00.367Z,9.4
2022-08-11T11:05:00.331Z,8.6
2022-08-11T11:10:01.089Z,5.0
2022-08-11T11:15:00.605Z,4.0
2022-08-11T11:20:00.357Z,11.2
2022-08-11T11:25:00.468Z,14.4
2022-08-11T11:30:00.443Z,10.8
2022-08-11T11:35:00.282Z,5.4
2022-08-11T11:40:00.398Z,5.8
2022-08-11T11:45:01.809Z,2.9
2022-08-11T11:50:00.418Z,11.5
2022-08-11T11:55:00.384Z,10.4
2022-08-11T12:00:00.347Z,15.5
2022-08-11T12:05:00.302Z,17.3
2022-08-11T12:10:00.493Z,7.6
2022-08-11T12:15:00.309Z,10.4
2022-08-11T12:20:02.826Z,6.1
2022-08-11T12:25:00.284Z,9.0
2022-08-11T12:30:00.417Z,9.7
2022-08-11T12:35:00.362Z,6.5
2022-08-11T12:40:42.389Z,2.2
2022-08-11T12:45:00.328Z,0.0
2022-08-11T12:50:00.337Z,5.4
2022-08-11T12:55:00.419Z,4.0
2022-08-11T13:00:01.235Z,8.3
2022-08-11T13:05:00.302Z,14.8
2022-08-11T13:10:00.384Z,5.8
2022-08-11T13:15:02.335Z,3.2
2022-08-11T13:20:00.329Z,8.3
2022-08-11T13:25:00.334Z,9.4
2022-08-11T13:30:00.686Z,5.0
2022-08-11T13:35:00.337Z,4.3
2022-08-11T13:40:00.737Z,0.0
2022-08-11T13:45:00.308Z,9.4
2022-08-11T13:50:00.338Z,7.2
2022-08-11T13:55:00.306Z,8.6
2022-08-11T14:00:01.002Z,10.4
2022-08-11T14:05:00.309Z,9.0
2022-08-11T14:10:00.427Z,4.7
2022-08-11T14:15:08.926Z,15.5
2022-08-11T14:20:00.403Z,6.8
2022-08-11T14:25:00.361Z,8.3
2022-08-11T14:30:00.482Z,12.2
2022-08-11T14:35:00.311Z,8.6
2022-08-11T14:40:04.637Z,16.9
2022-08-11T14:45:00.364Z,12.6
2022-08-11T14:50:12.866Z,11.5
2022-08-11T14:55:00.320Z,15.8
2022-08-11T15:00:00.367Z,11.2
2022-08-11T15:05:00.307Z,10.4
2022-08-11T15:10:13.830Z,3.2
2022-08-11T15:15:00.478Z,8.3
2022-08-11T15:20:00.862Z,10.8
2022-08-11T15:25:00.393Z,16.6
2022-08-11T15:30:00.532Z,13.7
2022-08-11T15:35:04.206Z,4.7
2022-08-11T15:40:00.901Z,8.3
2022-08-11T15:45:04.738Z,14.0
2022-08-11T15:50:14.139Z,10.1
2022-08-11T15:55:00.423Z,16.9
2022-08-11T16:00:00.357Z,16.9
2022-08-11T16:05:00.348Z,6.8
2022-08-11T16:10:00.957Z,8.6
2022-08-11T16:15:00.314Z,8.6
2022-08-11T16:20:00.445Z,9.7
2022-08-11T16:25:58.649Z,5.8
2022-08-11T16:30:00.356Z,13.7
2022-08-11T16:35:00.347Z,9.4
2022-08-11T16:40:00.525Z,10.1
2022-08-11T16:45:00.339Z,9.0
2022-08-11T16:50:00.373Z,8.6
2022-08-11T16:55:00.352Z,10.1
2022-08-11T17:00:00.374Z,10.1
2022-08-11T17:05:00.314Z,13.3
2022-08-11T17:10:00.371Z,9.0
2022-08-11T17:15:00.341Z,6.8
2022-08-11T17:20:39.018Z,6.5
2022-08-11T17:25:00.335Z,10.1
2022-08-11T17:30:00.348Z,6.8
2022-08-11T17:35:00.334Z,7.9
2022-08-11T17:40:02.295Z,5.8
2022-08-11T17:45:00.347Z,7.2
2022-08-11T17:50:18.356Z,7.6
2022-08-11T17:55:06.285Z,11.9
2022-08-11T18:00:00.420Z,10.8
2022-08-11T18:05:00.345Z,11.5
2022-08-11T18:10:00.321Z,7.6
2022-08-11T18:15:00.313Z,4.3
2022-08-11T18:20:00.418Z,10.1
2022-08-11T18:25:00.300Z,5.8
2022-08-11T18:30:02.331Z,5.0
2022-08-11T18:35:00.289Z,7.6
2022-08-11T18:40:00.615Z,5.4
2022-08-11T18:45:00.415Z,4.0
2022-08-11T18:50:05.835Z,2.5
2022-08-11T18:55:00.302Z,1.8
2022-08-11T19:00:00.499Z,1.4
2022-08-11T19:05:00.307Z,2.5
2022-08-11T19:10:00.339Z,2.5
2022-08-11T19:15:00.306Z,1.8
2022-08-11T19:20:00.363Z,2.2
2022-08-11T19:25:02.995Z,2.5
2022-08-11T19:30:14.240Z,2.2
2022-08-11T19:35:00.370Z,1.8
2022-08-11T19:40:00.642Z,0.0
2022-08-11T19:45:00.307Z,1.8
2022-08-11T19:50:00.436Z,0.0
2022-08-11T19:55:00.283Z,1.4
2022-08-11T20:00:00.344Z,2.2
2022-08-11T20:05:00.308Z,2.2
2022-08-11T20:10:06.849Z,0.0
2022-08-11T20:15:00.335Z,0.0
2022-08-11T20:25:00.264Z,5.8
2022-08-11T20:30:00.432Z,5.0
2022-08-11T20:35:00.296Z,5.4
2022-08-11T20:40:00.393Z,8.6
2022-08-11T20:45:00.319Z,7.2
2022-08-11T20:50:03.393Z,4.7
2022-08-11T20:55:00.955Z,6.5
2022-08-11T21:00:00.382Z,4.0
2022-08-11T21:05:00.867Z,4.7
2022-08-11T21:10:17.331Z,4.7
2022-08-11T21:15:05.994Z,4.0
2022-08-11T21:20:15.667Z,5.8
2022-08-11T21:25:00.401Z,2.5
2022-08-11T21:30:00.329Z,2.5
2022-08-11T21:35:00.335Z,4.0
2022-08-11T21:40:00.728Z,3.6
2022-08-11T21:45:00.328Z,3.6
2022-08-11T21:50:00.384Z,3.2
2022-08-11T21:55:00.304Z,3.6
2022-08-11T22:00:00.498Z,2.5
2022-08-11T22:05:00.306Z,0.0
2022-08-11T22:10:27.688Z,2.2
2022-08-11T22:15:00.319Z,1.8
2022-08-11T22:20:01.363Z,2.2
2022-08-11T22:25:00.343Z,0.0
2022-08-11T22:30:00.430Z,0.0
2022-08-11T22:35:00.313Z,0.0
2022-08-11T22:40:03.592Z,1.4
2022-08-11T22:45:00.360Z,1.8
2022-08-11T22:50:00.356Z,1.4
2022-08-11T22:55:00.367Z,0.0
2022-08-11T23:00:00.351Z,0.0
2022-08-11T23:05:00.369Z,0.0
2022-08-11T23:10:00.329Z,0.0
2022-08-11T23:15:00.416Z,0.0
2022-08-11T23:20:28.248Z,0.0
2022-08-11T23:25:00.344Z,0.0
2022-08-11T23:30:00.419Z,1.4
2022-08-11T23:35:37.720Z,1.8
2022-08-11T23:40:00.337Z,1.8
2022-08-11T23:45:00.352Z,1.4
2022-08-11T23:50:00.360Z,2.2
2022-08-11T23:55:00.410Z,1.4
